createdAt,value
2022-07-29T00:00:49.083Z,3.58
2022-07-29T00:03:15.308Z,3.33
2022-07-29T00:05:41.588Z,3.80
2022-07-29T00:08:12.212Z,3.03
2022-07-29T00:10:38.806Z,3.50
2022-07-29T00:13:05.055Z,2.95
2022-07-29T00:15:31.282Z,3.33
2022-07-29T00:17:57.519Z,3.47
2022-07-29T00:20:23.720Z,3.42
2022-07-29T00:22:49.937Z,2.85
2022-07-29T00:25:16.139Z,3.50
2022-07-29T00:27:42.378Z,3.70
2022-07-29T00:30:08.607Z,3.45
2022-07-29T00:32:34.831Z,3.58
2022-07-29T00:35:01.033Z,3.55
2022-07-29T00:37:27.287Z,3.33
2022-07-29T00:39:53.490Z,4.13
2022-07-29T00:42:19.682Z,3.72
2022-07-29T00:44:45.895Z,3.25
2022-07-29T00:47:12.193Z,3.50
2022-07-29T00:49:38.451Z,3.80
2022-07-29T00:52:04.631Z,3.63
2022-07-29T00:54:30.887Z,3.90
2022-07-29T00:56:57.122Z,3.90
2022-07-29T00:59:23.356Z,4.57
2022-07-29T01:01:49.606Z,4.05
2022-07-29T01:04:16.330Z,4.20
2022-07-29T01:06:43.522Z,4.07
2022-07-29T01:09:09.712Z,3.90
2022-07-29T01:11:35.911Z,4.00
2022-07-29T01:14:02.107Z,4.20
2022-07-29T01:16:28.399Z,3.70
2022-07-29T01:18:54.656Z,3.67
2022-07-29T01:21:20.884Z,4.53
2022-07-29T01:23:47.079Z,3.40
2022-07-29T01:26:13.298Z,4.18
2022-07-29T01:28:41.615Z,3.75
2022-07-29T01:31:08.946Z,3.88
2022-07-29T01:33:38.584Z,4.03
2022-07-29T01:36:04.762Z,4.20
2022-07-29T01:38:30.990Z,4.45
2022-07-29T01:40:57.212Z,4.07
2022-07-29T01:43:23.418Z,3.78
2022-07-29T01:45:49.615Z,3.95
2022-07-29T01:48:15.846Z,3.88
2022-07-29T01:50:42.055Z,3.55
2022-07-29T01:53:08.318Z,3.95
2022-07-29T01:55:34.504Z,4.30
2022-07-29T01:58:00.710Z,4.35
2022-07-29T02:00:26.970Z,3.53
2022-07-29T02:02:53.152Z,3.70
2022-07-29T02:05:19.385Z,3.70
2022-07-29T02:07:45.612Z,4.00
2022-07-29T02:10:11.855Z,3.80
2022-07-29T02:12:38.075Z,3.75
2022-07-29T02:15:04.268Z,3.67
2022-07-29T02:17:30.488Z,3.85
2022-07-29T02:19:56.686Z,4.07
2022-07-29T02:22:22.892Z,3.67
2022-07-29T02:24:49.083Z,4.00
2022-07-29T02:27:15.318Z,3.25
2022-07-29T02:29:41.507Z,4.68
2022-07-29T02:32:07.819Z,3.22
2022-07-29T02:34:34.705Z,3.40
2022-07-29T02:37:00.976Z,3.55
2022-07-29T02:39:27.198Z,3.85
2022-07-29T02:41:53.414Z,3.25
2022-07-29T02:44:20.088Z,3.25
2022-07-29T02:46:46.703Z,3.80
2022-07-29T02:49:13.029Z,4.35
2022-07-29T02:51:44.162Z,3.83
2022-07-29T02:54:11.141Z,3.53
2022-07-29T02:56:37.374Z,3.50
2022-07-29T02:59:03.601Z,3.60
2022-07-29T03:01:29.903Z,3.90
2022-07-29T03:03:56.125Z,3.15
2022-07-29T03:06:31.071Z,3.67
2022-07-29T03:09:07.863Z,2.80
2022-07-29T03:11:46.166Z,3.28
2022-07-29T03:14:16.655Z,3.75
2022-07-29T03:16:43.096Z,3.03
2022-07-29T03:19:09.347Z,3.55
2022-07-29T03:21:35.529Z,3.28
2022-07-29T03:24:03.554Z,3.75
2022-07-29T03:26:33.036Z,3.47
2022-07-29T03:28:59.216Z,2.90
2022-07-29T03:31:25.959Z,3.20
2022-07-29T03:33:52.948Z,3.30
2022-07-29T03:36:19.221Z,4.25
2022-07-29T03:38:45.440Z,3.22
2022-07-29T03:41:11.632Z,3.55
2022-07-29T03:43:37.859Z,3.20
2022-07-29T03:46:04.151Z,3.38
2022-07-29T03:48:30.390Z,3.28
2022-07-29T03:50:56.567Z,3.70
2022-07-29T03:53:22.804Z,3.70
2022-07-29T03:55:49.000Z,2.78
2022-07-29T03:58:15.209Z,3.22
2022-07-29T04:00:41.394Z,3.53
2022-07-29T04:03:10.678Z,3.30
2022-07-29T04:05:37.956Z,3.47
2022-07-29T04:08:04.165Z,3.60
2022-07-29T04:10:31.940Z,3.45
2022-07-29T04:13:00.251Z,3.60
2022-07-29T04:15:26.532Z,3.17
2022-07-29T04:17:57.919Z,3.30
2022-07-29T04:20:24.192Z,3.28
2022-07-29T04:22:50.382Z,3.10
2022-07-29T04:25:16.567Z,3.15
2022-07-29T04:27:42.780Z,2.80
2022-07-29T04:30:08.976Z,2.92
2022-07-29T04:32:35.174Z,3.45
2022-07-29T04:35:01.360Z,3.22
2022-07-29T04:37:27.534Z,3.33
2022-07-29T04:39:53.759Z,3.22
2022-07-29T04:42:19.939Z,3.08
2022-07-29T04:44:53.851Z,3.10
2022-07-29T04:47:20.054Z,3.17
2022-07-29T04:49:47.409Z,2.70
2022-07-29T04:52:13.611Z,3.33
2022-07-29T04:54:39.833Z,3.10
2022-07-29T04:57:06.020Z,3.17
2022-07-29T04:59:32.237Z,3.55
2022-07-29T05:01:58.457Z,3.33
2022-07-29T05:04:24.710Z,2.60
2022-07-29T05:06:50.938Z,2.75
2022-07-29T05:09:17.133Z,2.70
2022-07-29T05:11:43.343Z,3.60
2022-07-29T05:14:09.540Z,2.80
2022-07-29T05:16:35.817Z,2.58
2022-07-29T05:19:02.026Z,2.85
2022-07-29T05:21:28.327Z,2.58
2022-07-29T05:23:54.553Z,2.70
2022-07-29T05:26:20.771Z,2.78
2022-07-29T05:28:46.960Z,3.00
2022-07-29T05:31:13.349Z,3.55
2022-07-29T05:33:39.643Z,2.92
2022-07-29T05:36:05.836Z,3.50
2022-07-29T05:38:32.068Z,2.92
2022-07-29T05:40:58.265Z,3.03
2022-07-29T05:43:24.500Z,2.50
2022-07-29T05:45:50.733Z,2.90
2022-07-29T05:48:16.961Z,3.03
2022-07-29T05:50:44.055Z,2.30
2022-07-29T05:53:20.124Z,2.88
2022-07-29T05:55:46.842Z,3.10
2022-07-29T05:58:13.129Z,2.53
2022-07-29T06:00:39.333Z,3.05
2022-07-29T06:03:05.528Z,2.83
2022-07-29T06:05:31.732Z,3.28
2022-07-29T06:07:57.928Z,3.15
2022-07-29T06:10:26.308Z,3.08
2022-07-29T06:12:53.313Z,2.50
2022-07-29T06:15:19.531Z,3.03
2022-07-29T06:18:00.853Z,3.35
2022-07-29T06:20:28.062Z,2.58
2022-07-29T06:22:54.335Z,2.90
2022-07-29T06:25:20.600Z,3.30
2022-07-29T06:27:46.820Z,3.13
2022-07-29T06:30:13.146Z,2.75
2022-07-29T06:32:43.044Z,3.25
2022-07-29T06:35:37.642Z,2.92
2022-07-29T06:37:55.895Z,2.40
2022-07-29T06:40:25.885Z,2.55
2022-07-29T06:42:52.128Z,2.72
2022-07-29T06:45:18.314Z,2.75
2022-07-29T06:47:44.518Z,2.70
2022-07-29T06:50:13.000Z,2.97
2022-07-29T06:52:39.264Z,2.70
2022-07-29T06:55:05.465Z,2.85
2022-07-29T06:57:32.273Z,3.00
2022-07-29T06:59:58.510Z,3.17
2022-07-29T07:02:24.743Z,2.50
2022-07-29T07:04:51.061Z,3.17
2022-07-29T07:07:17.278Z,3.15
2022-07-29T07:09:44.229Z,3.08
2022-07-29T07:12:10.406Z,2.67
2022-07-29T07:14:36.618Z,2.80
2022-07-29T07:17:02.882Z,3.35
2022-07-29T07:19:29.138Z,2.50
2022-07-29T07:21:55.383Z,2.40
2022-07-29T07:24:21.902Z,2.65
2022-07-29T07:26:48.141Z,3.00
2022-07-29T07:29:14.373Z,2.80
2022-07-29T07:31:40.644Z,2.85
2022-07-29T07:34:06.965Z,2.63
2022-07-29T07:36:33.152Z,2.83
2022-07-29T07:38:59.427Z,2.40
2022-07-29T07:41:25.622Z,2.75
2022-07-29T07:43:51.854Z,2.80
2022-07-29T07:46:18.785Z,2.67
2022-07-29T07:48:45.164Z,2.90
2022-07-29T07:51:11.418Z,2.75
2022-07-29T07:53:37.619Z,2.95
2022-07-29T07:56:12.656Z,2.65
2022-07-29T07:58:39.149Z,2.80
2022-07-29T08:01:05.445Z,2.35
2022-07-29T08:03:31.691Z,2.40
2022-07-29T08:05:58.009Z,3.38
2022-07-29T08:08:24.173Z,2.17
2022-07-29T08:10:50.385Z,3.55
2022-07-29T08:13:16.607Z,2.50
2022-07-29T08:15:42.833Z,2.08
2022-07-29T08:18:09.104Z,2.55
2022-07-29T08:20:35.335Z,2.22
2022-07-29T08:23:01.571Z,3.08
2022-07-29T08:25:27.773Z,2.60
2022-07-29T08:27:53.984Z,2.33
2022-07-29T08:30:20.208Z,2.05
2022-07-29T08:32:54.861Z,2.28
2022-07-29T08:35:21.902Z,2.22
2022-07-29T08:37:48.155Z,2.25
2022-07-29T08:40:14.351Z,2.20
2022-07-29T08:42:40.595Z,2.45
2022-07-29T08:45:06.823Z,2.22
2022-07-29T08:47:33.081Z,2.20
2022-07-29T08:49:59.259Z,2.00
2022-07-29T08:52:25.475Z,2.95
2022-07-29T08:54:51.751Z,2.10
2022-07-29T08:57:18.075Z,1.90
2022-07-29T08:59:45.848Z,2.50
2022-07-29T09:02:12.732Z,2.10
2022-07-29T09:04:38.931Z,2.53
2022-07-29T09:07:05.125Z,1.73
2022-07-29T09:09:31.412Z,2.00
2022-07-29T09:11:58.017Z,1.52
2022-07-29T09:14:24.375Z,1.77
2022-07-29T09:16:53.496Z,1.98
2022-07-29T09:19:20.280Z,1.50
2022-07-29T09:21:46.507Z,2.28
2022-07-29T09:24:12.716Z,1.55
2022-07-29T09:26:38.901Z,1.58
2022-07-29T09:29:05.086Z,2.40
2022-07-29T09:31:31.474Z,1.75
2022-07-29T09:33:57.723Z,2.10
2022-07-29T09:36:24.049Z,2.25
2022-07-29T09:38:50.305Z,1.80
2022-07-29T09:41:16.537Z,2.00
2022-07-29T09:43:42.722Z,2.20
2022-07-29T09:46:12.044Z,2.15
2022-07-29T09:48:38.615Z,1.55
2022-07-29T09:51:04.946Z,2.28
2022-07-29T09:53:31.166Z,1.80
2022-07-29T09:55:57.383Z,1.88
2022-07-29T09:58:23.581Z,1.83
2022-07-29T10:00:49.892Z,1.90
2022-07-29T10:03:16.239Z,1.77
2022-07-29T10:05:42.469Z,1.83
2022-07-29T10:08:08.686Z,1.95
2022-07-29T10:10:34.900Z,1.63
2022-07-29T10:13:06.949Z,2.25
2022-07-29T10:15:35.089Z,1.67
2022-07-29T10:18:01.487Z,1.40
2022-07-29T10:20:27.705Z,1.65
2022-07-29T10:22:54.301Z,2.08
2022-07-29T10:25:20.720Z,2.08
2022-07-29T10:27:46.966Z,1.80
2022-07-29T10:30:13.189Z,1.67
2022-07-29T10:32:39.455Z,1.67
2022-07-29T10:35:05.683Z,1.58
2022-07-29T10:37:35.501Z,1.60
2022-07-29T10:40:02.363Z,1.80
2022-07-29T10:42:29.749Z,1.70
2022-07-29T10:45:00.674Z,2.15
2022-07-29T10:47:26.875Z,2.10
2022-07-29T10:49:53.063Z,2.22
2022-07-29T10:52:19.477Z,1.92
2022-07-29T10:54:45.859Z,2.03
2022-07-29T10:57:12.167Z,1.80
2022-07-29T10:59:38.375Z,1.95
2022-07-29T11:02:35.387Z,1.70
2022-07-29T11:04:50.910Z,1.75
2022-07-29T11:07:17.100Z,2.13
2022-07-29T11:09:43.898Z,1.65
2022-07-29T11:12:11.318Z,1.95
2022-07-29T11:14:38.959Z,1.80
2022-07-29T11:17:07.046Z,1.58
2022-07-29T11:19:33.361Z,1.40
2022-07-29T11:21:59.624Z,2.00
2022-07-29T11:24:28.826Z,1.70
2022-07-29T11:27:00.198Z,1.95
2022-07-29T11:29:26.885Z,1.70
2022-07-29T11:31:53.797Z,1.75
2022-07-29T11:34:20.744Z,1.80
2022-07-29T11:36:47.366Z,1.80
2022-07-29T11:39:14.213Z,1.70
2022-07-29T11:41:41.433Z,1.90
2022-07-29T11:44:09.034Z,1.60
2022-07-29T11:46:35.262Z,1.50
2022-07-29T11:49:02.242Z,2.15
2022-07-29T11:54:05.466Z,1.90
2022-07-29T11:56:39.116Z,1.80
2022-07-29T11:59:08.453Z,2.35
2022-07-29T12:01:34.814Z,1.80
2022-07-29T12:04:01.106Z,1.80
2022-07-29T12:06:27.318Z,1.80
2022-07-29T12:08:53.574Z,2.10
2022-07-29T12:11:21.155Z,2.83
2022-07-29T12:13:49.444Z,2.20
2022-07-29T12:16:16.011Z,1.92
2022-07-29T12:18:51.197Z,1.90
2022-07-29T12:21:17.451Z,1.98
2022-07-29T12:23:43.669Z,2.10
2022-07-29T12:26:10.843Z,1.90
2022-07-29T12:28:48.064Z,2.60
2022-07-29T12:31:14.308Z,2.13
2022-07-29T12:33:40.576Z,2.05
2022-07-29T12:36:09.450Z,2.70
2022-07-29T12:38:37.920Z,2.13
2022-07-29T12:41:04.378Z,2.42
2022-07-29T12:43:30.887Z,2.28
2022-07-29T12:45:57.161Z,2.10
2022-07-29T12:48:23.389Z,2.35
2022-07-29T12:50:49.595Z,2.17
2022-07-29T12:53:15.845Z,2.42
2022-07-29T12:55:44.055Z,2.28
2022-07-29T12:58:10.254Z,2.58
2022-07-29T13:00:36.500Z,2.30
2022-07-29T13:03:02.780Z,2.30
2022-07-29T13:05:28.996Z,2.63
2022-07-29T13:07:57.566Z,2.60
2022-07-29T13:10:25.311Z,2.30
2022-07-29T13:12:51.561Z,2.40
2022-07-29T13:15:17.883Z,2.80
2022-07-29T13:17:44.170Z,2.60
2022-07-29T13:20:14.246Z,2.28
2022-07-29T13:22:40.492Z,2.70
2022-07-29T13:25:06.850Z,2.50
2022-07-29T13:27:33.109Z,2.17
2022-07-29T13:29:59.310Z,2.50
2022-07-29T13:32:28.673Z,2.90
2022-07-29T13:34:55.238Z,2.55
2022-07-29T13:37:21.481Z,2.72
2022-07-29T13:39:53.222Z,2.70
2022-07-29T13:42:19.759Z,3.45
2022-07-29T13:44:46.201Z,2.63
2022-07-29T13:47:12.399Z,2.47
2022-07-29T13:49:38.627Z,2.20
2022-07-29T13:52:04.826Z,2.65
2022-07-29T13:54:31.027Z,2.72
2022-07-29T13:56:57.244Z,3.10
2022-07-29T13:59:23.485Z,2.22
2022-07-29T14:01:49.692Z,2.50
2022-07-29T14:04:16.042Z,2.72
2022-07-29T14:06:42.306Z,2.65
2022-07-29T14:09:08.495Z,2.60
2022-07-29T14:11:34.781Z,2.60
2022-07-29T14:14:01.014Z,2.53
2022-07-29T14:16:27.342Z,2.55
2022-07-29T14:18:53.647Z,2.38
2022-07-29T14:21:19.863Z,2.53
2022-07-29T14:23:46.040Z,2.53
2022-07-29T14:26:16.004Z,2.60
2022-07-29T14:28:48.023Z,2.60
2022-07-29T14:31:14.249Z,2.72
2022-07-29T14:33:40.453Z,2.42
2022-07-29T14:36:06.661Z,3.28
2022-07-29T14:38:32.859Z,2.67
2022-07-29T14:40:59.082Z,2.70
2022-07-29T14:43:25.292Z,2.83
2022-07-29T14:45:51.521Z,2.60
2022-07-29T14:48:17.806Z,2.88
2022-07-29T14:50:44.020Z,2.78
2022-07-29T14:53:10.225Z,2.50
2022-07-29T14:55:36.430Z,2.40
2022-07-29T14:58:09.729Z,2.58
2022-07-29T15:00:38.332Z,2.33
2022-07-29T15:03:04.581Z,2.70
2022-07-29T15:05:30.844Z,2.65
2022-07-29T15:07:57.114Z,2.25
2022-07-29T15:10:24.840Z,2.60
2022-07-29T15:12:51.195Z,2.85
2022-07-29T15:15:17.414Z,2.30
2022-07-29T15:17:43.662Z,2.50
2022-07-29T15:20:09.898Z,2.60
2022-07-29T15:22:36.105Z,2.45
2022-07-29T15:25:02.273Z,2.72
2022-07-29T15:27:28.497Z,3.00
2022-07-29T15:29:54.699Z,2.63
2022-07-29T15:32:20.902Z,2.70
2022-07-29T15:34:47.178Z,3.13
2022-07-29T15:37:13.476Z,2.60
2022-07-29T15:39:39.766Z,2.25
2022-07-29T15:42:05.941Z,2.72
2022-07-29T15:44:32.168Z,2.15
2022-07-29T15:46:58.626Z,2.78
2022-07-29T15:49:25.234Z,2.42
2022-07-29T15:51:51.435Z,2.80
2022-07-29T15:54:17.631Z,2.20
2022-07-29T15:56:43.861Z,2.97
2022-07-29T15:59:10.191Z,3.60
2022-07-29T16:01:48.701Z,3.15
2022-07-29T16:04:14.921Z,4.63
2022-07-29T16:06:41.222Z,3.80
2022-07-29T16:09:07.380Z,2.90
2022-07-29T16:11:33.593Z,2.83
2022-07-29T16:13:59.779Z,2.90
2022-07-29T16:16:26.030Z,3.15
2022-07-29T16:18:52.309Z,2.85
2022-07-29T16:21:18.524Z,2.83
2022-07-29T16:23:44.725Z,2.63
2022-07-29T16:26:10.917Z,2.95
2022-07-29T16:28:37.152Z,2.92
2022-07-29T16:31:03.339Z,3.90
2022-07-29T16:33:55.423Z,2.85
2022-07-29T16:36:15.716Z,3.00
2022-07-29T16:38:47.191Z,2.50
2022-07-29T16:41:13.828Z,2.78
2022-07-29T16:43:40.022Z,2.55
2022-07-29T16:46:06.323Z,2.90
2022-07-29T16:48:32.576Z,2.97
2022-07-29T16:50:58.807Z,2.53
2022-07-29T16:53:29.683Z,2.67
2022-07-29T16:55:56.257Z,2.50
2022-07-29T16:58:22.502Z,2.80
2022-07-29T17:00:48.714Z,2.55
2022-07-29T17:03:14.933Z,2.65
2022-07-29T17:05:50.447Z,2.88
2022-07-29T17:08:20.416Z,3.65
2022-07-29T17:10:46.583Z,2.55
2022-07-29T17:13:12.809Z,2.28
2022-07-29T17:15:39.012Z,2.47
2022-07-29T17:18:12.921Z,2.15
2022-07-29T17:20:39.323Z,2.42
2022-07-29T17:23:05.494Z,2.60
2022-07-29T17:25:31.731Z,2.30
2022-07-29T17:28:00.950Z,2.22
2022-07-29T17:30:27.529Z,1.92
2022-07-29T17:32:53.745Z,2.38
2022-07-29T17:35:20.036Z,2.75
2022-07-29T17:37:46.233Z,2.28
2022-07-29T17:40:12.451Z,2.88
2022-07-29T17:42:38.656Z,2.60
2022-07-29T17:45:04.921Z,2.63
2022-07-29T17:47:31.110Z,2.45
2022-07-29T17:49:57.348Z,2.38
2022-07-29T17:52:23.590Z,3.25
2022-07-29T17:54:49.786Z,2.30
2022-07-29T17:57:15.994Z,2.17
2022-07-29T17:59:42.158Z,2.80
2022-07-29T18:02:08.422Z,2.05
2022-07-29T18:04:34.685Z,2.45
2022-07-29T18:07:01.407Z,2.60
2022-07-29T18:09:27.793Z,2.63
2022-07-29T18:11:53.973Z,2.90
2022-07-29T18:14:20.202Z,2.33
2022-07-29T18:16:46.513Z,2.40
2022-07-29T18:19:12.852Z,2.35
2022-07-29T18:21:44.341Z,2.88
2022-07-29T18:24:18.261Z,2.10
2022-07-29T18:26:44.504Z,2.40
2022-07-29T18:29:10.680Z,1.90
2022-07-29T18:31:37.118Z,2.25
2022-07-29T18:34:03.325Z,2.47
2022-07-29T18:36:29.528Z,2.30
2022-07-29T18:38:55.816Z,3.08
2022-07-29T18:41:22.059Z,2.60
2022-07-29T18:43:48.260Z,2.08
2022-07-29T18:46:14.588Z,2.78
2022-07-29T18:48:40.890Z,1.55
2022-07-29T18:51:09.205Z,1.98
2022-07-29T18:53:36.597Z,2.05
2022-07-29T18:56:03.248Z,2.13
2022-07-29T18:58:29.515Z,2.10
2022-07-29T19:00:55.721Z,1.63
2022-07-29T19:03:21.990Z,2.30
2022-07-29T19:05:48.262Z,2.35
2022-07-29T19:08:14.471Z,2.08
2022-07-29T19:10:40.725Z,2.17
2022-07-29T19:13:06.914Z,2.17
2022-07-29T19:15:33.118Z,2.08
2022-07-29T19:18:01.318Z,1.77
2022-07-29T19:20:27.649Z,2.38
2022-07-29T19:22:53.869Z,1.90
2022-07-29T19:25:20.059Z,2.35
2022-07-29T19:27:46.269Z,2.03
2022-07-29T19:30:12.495Z,2.83
2022-07-29T19:32:38.749Z,2.08
2022-07-29T19:35:05.048Z,2.17
2022-07-29T19:37:31.278Z,2.15
2022-07-29T19:39:57.852Z,2.10
2022-07-29T19:42:24.141Z,2.22
2022-07-29T19:44:50.350Z,2.10
2022-07-29T19:47:17.412Z,2.50
2022-07-29T19:49:43.760Z,1.73
2022-07-29T19:52:10.020Z,2.53
2022-07-29T19:54:36.270Z,2.20
2022-07-29T19:57:02.512Z,2.05
2022-07-29T19:59:30.269Z,2.05
2022-07-29T20:01:56.563Z,2.28
2022-07-29T20:04:22.803Z,2.08
2022-07-29T20:06:49.100Z,2.25
2022-07-29T20:09:20.289Z,2.65
2022-07-29T20:11:46.713Z,2.35
2022-07-29T20:14:12.949Z,1.98
2022-07-29T20:16:39.388Z,2.20
2022-07-29T20:19:05.958Z,2.20
2022-07-29T20:21:32.159Z,2.40
2022-07-29T20:23:58.349Z,2.53
2022-07-29T20:26:24.556Z,2.30
2022-07-29T20:28:50.753Z,2.20
2022-07-29T20:31:17.085Z,2.53
2022-07-29T20:33:43.415Z,2.60
2022-07-29T20:36:09.645Z,1.95
2022-07-29T20:38:35.852Z,2.28
2022-07-29T20:41:02.067Z,1.90
2022-07-29T20:43:28.299Z,1.95
2022-07-29T20:45:54.528Z,2.03
2022-07-29T20:48:20.761Z,2.20
2022-07-29T20:50:46.975Z,2.38
2022-07-29T20:53:13.195Z,2.00
2022-07-29T20:55:39.420Z,1.92
2022-07-29T20:58:05.619Z,2.13
2022-07-29T21:00:31.922Z,2.25
2022-07-29T21:02:58.292Z,2.30
2022-07-29T21:05:24.541Z,2.85
2022-07-29T21:07:53.339Z,2.70
2022-07-29T21:10:21.620Z,2.17
2022-07-29T21:12:47.931Z,2.13
2022-07-29T21:15:14.135Z,2.40
2022-07-29T21:17:40.328Z,2.22
2022-07-29T21:20:06.644Z,2.22
2022-07-29T21:22:32.857Z,2.30
2022-07-29T21:24:59.157Z,1.70
2022-07-29T21:27:25.534Z,1.90
2022-07-29T21:29:51.942Z,2.13
2022-07-29T21:32:29.737Z,2.15
2022-07-29T21:34:56.451Z,2.65
2022-07-29T21:37:22.639Z,2.00
2022-07-29T21:39:48.987Z,2.40
2022-07-29T21:42:15.229Z,2.20
2022-07-29T21:44:41.406Z,2.13
2022-07-29T21:47:07.611Z,2.10
2022-07-29T21:49:33.889Z,2.58
2022-07-29T21:52:00.314Z,2.00
2022-07-29T21:54:27.989Z,1.90
2022-07-29T21:56:54.303Z,1.92
2022-07-29T21:59:20.666Z,2.20
2022-07-29T22:01:46.942Z,2.03
2022-07-29T22:04:13.251Z,2.28
2022-07-29T22:06:39.512Z,2.00
2022-07-29T22:09:05.690Z,2.10
2022-07-29T22:11:31.934Z,2.08
2022-07-29T22:13:58.097Z,2.22
2022-07-29T22:16:24.405Z,2.08
2022-07-29T22:18:50.646Z,2.13
2022-07-29T22:21:16.864Z,1.70
2022-07-29T22:23:43.082Z,2.40
2022-07-29T22:26:09.313Z,2.05
2022-07-29T22:28:35.515Z,2.10
2022-07-29T22:31:01.731Z,2.78
2022-07-29T22:33:28.002Z,2.17
2022-07-29T22:35:54.248Z,1.95
2022-07-29T22:38:20.479Z,1.80
2022-07-29T22:40:46.682Z,2.78
2022-07-29T22:43:14.854Z,1.90
2022-07-29T22:45:41.122Z,2.20
2022-07-29T22:48:07.361Z,2.80
2022-07-29T22:50:33.591Z,1.83
2022-07-29T22:52:59.796Z,2.15
2022-07-29T22:55:26.031Z,2.20
2022-07-29T22:57:52.237Z,1.80
2022-07-29T23:00:18.456Z,1.80
2022-07-29T23:02:44.652Z,2.50
2022-07-29T23:05:14.086Z,2.15
2022-07-29T23:07:40.298Z,2.13
2022-07-29T23:10:06.478Z,2.10
2022-07-29T23:12:32.699Z,2.05
2022-07-29T23:14:58.930Z,1.70
2022-07-29T23:17:25.139Z,2.20
2022-07-29T23:19:51.386Z,2.13
2022-07-29T23:22:18.476Z,1.77
2022-07-29T23:24:44.867Z,1.90
2022-07-29T23:27:11.087Z,2.28
2022-07-29T23:29:37.286Z,2.30
2022-07-29T23:32:03.510Z,2.20
2022-07-29T23:34:29.748Z,2.38
2022-07-29T23:36:55.971Z,2.10
2022-07-29T23:39:22.169Z,1.90
2022-07-29T23:41:48.809Z,1.92
2022-07-29T23:44:15.083Z,2.05
2022-07-29T23:46:42.778Z,2.20
2022-07-29T23:49:09.094Z,2.40
2022-07-29T23:51:35.295Z,2.15
2022-07-29T23:54:01.498Z,2.58
2022-07-29T23:56:27.719Z,1.88
2022-07-29T23:58:53.921Z,1.90
